sensor_id;sensor_type;location;lat;lon;timestamp;P1;durP1;ratioP1;P2;durP2;ratioP2
51692;SDS011;37777;53.066;21.638;2022-07-17T00:05:55;3.92;;;2.10;;
51692;SDS011;37777;53.066;21.638;2022-07-17T00:12:57;5.63;;;2.70;;
51692;SDS011;37777;53.066;21.638;2022-07-17T00:20:00;3.80;;;2.10;;
51692;SDS011;37777;53.066;21.638;2022-07-17T00:27:02;2.65;;;2.00;;
51692;SDS011;37777;53.066;21.638;2022-07-17T00:34:05;2.28;;;2.10;;
51692;SDS011;37777;53.066;21.638;2022-07-17T00:41:08;2.80;;;2.60;;
51692;SDS011;37777;53.066;21.638;2022-07-17T00:48:11;2.97;;;2.30;;
51692;SDS011;37777;53.066;21.638;2022-07-17T00:55:14;8.52;;;2.65;;
51692;SDS011;37777;53.066;21.638;2022-07-17T01:02:37;2.92;;;2.50;;
51692;SDS011;37777;53.066;21.638;2022-07-17T01:09:40;4.15;;;2.95;;
51692;SDS011;37777;53.066;21.638;2022-07-17T01:16:42;3.83;;;3.05;;
51692;SDS011;37777;53.066;21.638;2022-07-17T01:23:45;4.53;;;2.60;;
51692;SDS011;37777;53.066;21.638;2022-07-17T01:30:49;2.63;;;2.35;;
51692;SDS011;37777;53.066;21.638;2022-07-17T01:37:52;2.53;;;2.33;;
51692;SDS011;37777;53.066;21.638;2022-07-17T01:44:55;3.08;;;2.00;;
51692;SDS011;37777;53.066;21.638;2022-07-17T01:51:57;2.85;;;1.70;;
51692;SDS011;37777;53.066;21.638;2022-07-17T01:59:01;2.65;;;2.00;;
51692;SDS011;37777;53.066;21.638;2022-07-17T02:06:04;3.28;;;2.10;;
51692;SDS011;37777;53.066;21.638;2022-07-17T02:13:07;2.70;;;1.98;;
51692;SDS011;37777;53.066;21.638;2022-07-17T02:20:09;2.03;;;1.92;;
51692;SDS011;37777;53.066;21.638;2022-07-17T02:27:12;2.75;;;1.95;;
51692;SDS011;37777;53.066;21.638;2022-07-17T02:34:15;2.65;;;2.17;;
51692;SDS011;37777;53.066;21.638;2022-07-17T02:41:17;2.22;;;2.03;;
51692;SDS011;37777;53.066;21.638;2022-07-17T02:48:19;4.28;;;2.10;;
51692;SDS011;37777;53.066;21.638;2022-07-17T02:55:21;2.88;;;2.10;;
51692;SDS011;37777;53.066;21.638;2022-07-17T03:02:24;3.35;;;2.25;;
51692;SDS011;37777;53.066;21.638;2022-07-17T03:09:26;2.45;;;2.20;;
51692;SDS011;37777;53.066;21.638;2022-07-17T03:16:28;2.30;;;2.20;;
51692;SDS011;37777;53.066;21.638;2022-07-17T03:23:31;2.85;;;2.38;;
51692;SDS011;37777;53.066;21.638;2022-07-17T03:30:33;2.55;;;2.35;;
51692;SDS011;37777;53.066;21.638;2022-07-17T03:37:35;6.55;;;2.30;;
51692;SDS011;37777;53.066;21.638;2022-07-17T03:44:39;3.75;;;2.45;;
51692;SDS011;37777;53.066;21.638;2022-07-17T03:51:41;2.80;;;2.60;;
51692;SDS011;37777;53.066;21.638;2022-07-17T03:58:44;8.75;;;4.13;;
51692;SDS011;37777;53.066;21.638;2022-07-17T04:05:46;6.40;;;3.90;;
51692;SDS011;37777;53.066;21.638;2022-07-17T04:12:48;3.70;;;3.40;;
51692;SDS011;37777;53.066;21.638;2022-07-17T04:19:50;4.68;;;2.72;;
51692;SDS011;37777;53.066;21.638;2022-07-17T04:26:53;3.47;;;2.70;;
51692;SDS011;37777;53.066;21.638;2022-07-17T04:33:55;2.90;;;2.60;;
51692;SDS011;37777;53.066;21.638;2022-07-17T04:40:57;4.40;;;3.03;;
51692;SDS011;37777;53.066;21.638;2022-07-17T04:47:59;3.30;;;2.88;;
51692;SDS011;37777;53.066;21.638;2022-07-17T04:55:01;3.97;;;3.15;;
51692;SDS011;37777;53.066;21.638;2022-07-17T05:02:03;5.57;;;2.63;;
51692;SDS011;37777;53.066;21.638;2022-07-17T05:09:06;4.28;;;3.38;;
51692;SDS011;37777;53.066;21.638;2022-07-17T05:16:08;3.90;;;2.80;;
51692;SDS011;37777;53.066;21.638;2022-07-17T05:23:11;5.75;;;2.78;;
51692;SDS011;37777;53.066;21.638;2022-07-17T05:30:14;4.88;;;3.05;;
51692;SDS011;37777;53.066;21.638;2022-07-17T05:37:16;4.85;;;2.92;;
51692;SDS011;37777;53.066;21.638;2022-07-17T05:44:18;3.60;;;3.10;;
51692;SDS011;37777;53.066;21.638;2022-07-17T05:51:20;5.57;;;3.22;;
51692;SDS011;37777;53.066;21.638;2022-07-17T05:58:26;3.42;;;3.00;;
51692;SDS011;37777;53.066;21.638;2022-07-17T06:05:28;2.70;;;2.50;;
51692;SDS011;37777;53.066;21.638;2022-07-17T06:12:30;3.33;;;2.58;;
51692;SDS011;37777;53.066;21.638;2022-07-17T06:19:32;3.20;;;2.80;;
51692;SDS011;37777;53.066;21.638;2022-07-17T06:26:35;4.00;;;2.40;;
51692;SDS011;37777;53.066;21.638;2022-07-17T06:33:37;6.55;;;2.90;;
51692;SDS011;37777;53.066;21.638;2022-07-17T06:40:39;3.95;;;2.70;;
51692;SDS011;37777;53.066;21.638;2022-07-17T06:47:41;3.20;;;2.65;;
51692;SDS011;37777;53.066;21.638;2022-07-17T06:54:44;4.57;;;2.60;;
51692;SDS011;37777;53.066;21.638;2022-07-17T07:01:46;6.00;;;2.75;;
51692;SDS011;37777;53.066;21.638;2022-07-17T07:08:48;3.60;;;3.05;;
51692;SDS011;37777;53.066;21.638;2022-07-17T07:15:50;4.65;;;3.03;;
51692;SDS011;37777;53.066;21.638;2022-07-17T07:22:54;4.40;;;2.88;;
51692;SDS011;37777;53.066;21.638;2022-07-17T07:29:57;5.25;;;2.80;;
51692;SDS011;37777;53.066;21.638;2022-07-17T07:36:59;3.30;;;2.65;;
51692;SDS011;37777;53.066;21.638;2022-07-17T07:44:02;4.57;;;2.72;;
51692;SDS011;37777;53.066;21.638;2022-07-17T07:51:04;4.65;;;2.83;;
51692;SDS011;37777;53.066;21.638;2022-07-17T07:58:10;4.18;;;2.47;;
51692;SDS011;37777;53.066;21.638;2022-07-17T08:05:14;5.28;;;2.20;;
51692;SDS011;37777;53.066;21.638;2022-07-17T08:12:16;2.42;;;2.17;;
51692;SDS011;37777;53.066;21.638;2022-07-17T08:19:38;5.22;;;2.10;;
51692;SDS011;37777;53.066;21.638;2022-07-17T08:26:40;4.60;;;2.50;;
51692;SDS011;37777;53.066;21.638;2022-07-17T08:33:42;4.38;;;2.25;;
51692;SDS011;37777;53.066;21.638;2022-07-17T08:40:44;7.72;;;2.00;;
51692;SDS011;37777;53.066;21.638;2022-07-17T08:47:51;2.13;;;1.92;;
51692;SDS011;37777;53.066;21.638;2022-07-17T08:54:54;8.65;;;2.58;;
51692;SDS011;37777;53.066;21.638;2022-07-17T09:02:00;4.72;;;2.10;;
51692;SDS011;37777;53.066;21.638;2022-07-17T09:09:07;6.47;;;2.37;;
51692;SDS011;37777;53.066;21.638;2022-07-17T09:16:12;7.03;;;2.42;;
51692;SDS011;37777;53.066;21.638;2022-07-17T09:23:16;3.85;;;3.10;;
51692;SDS011;37777;53.066;21.638;2022-07-17T09:30:19;6.65;;;2.10;;
51692;SDS011;37777;53.066;21.638;2022-07-17T09:37:23;2.55;;;1.60;;
51692;SDS011;37777;53.066;21.638;2022-07-17T09:44:26;6.28;;;2.92;;
51692;SDS011;37777;53.066;21.638;2022-07-17T09:51:33;8.77;;;3.50;;
51692;SDS011;37777;53.066;21.638;2022-07-17T09:58:38;6.82;;;3.80;;
51692;SDS011;37777;53.066;21.638;2022-07-17T10:05:42;4.78;;;3.08;;
51692;SDS011;37777;53.066;21.638;2022-07-17T10:12:48;6.03;;;3.03;;
51692;SDS011;37777;53.066;21.638;2022-07-17T10:19:55;3.83;;;2.30;;
51692;SDS011;37777;53.066;21.638;2022-07-17T10:26:58;3.50;;;2.00;;
51692;SDS011;37777;53.066;21.638;2022-07-17T10:34:03;2.20;;;2.00;;
51692;SDS011;37777;53.066;21.638;2022-07-17T10:41:07;3.13;;;1.63;;
51692;SDS011;37777;53.066;21.638;2022-07-17T10:48:13;4.13;;;1.77;;
51692;SDS011;37777;53.066;21.638;2022-07-17T10:55:21;2.25;;;1.80;;
51692;SDS011;37777;53.066;21.638;2022-07-17T11:02:28;2.20;;;2.00;;
51692;SDS011;37777;53.066;21.638;2022-07-17T11:09:31;4.20;;;1.90;;
51692;SDS011;37777;53.066;21.638;2022-07-17T11:16:34;2.40;;;1.20;;
51692;SDS011;37777;53.066;21.638;2022-07-17T11:23:36;1.30;;;1.20;;
51692;SDS011;37777;53.066;21.638;2022-07-17T11:30:38;3.50;;;1.40;;
51692;SDS011;37777;53.066;21.638;2022-07-17T11:37:41;1.45;;;1.35;;
51692;SDS011;37777;53.066;21.638;2022-07-17T11:44:43;1.60;;;1.45;;
51692;SDS011;37777;53.066;21.638;2022-07-17T11:51:45;1.40;;;1.30;;
51692;SDS011;37777;53.066;21.638;2022-07-17T11:58:49;1.25;;;1.10;;
51692;SDS011;37777;53.066;21.638;2022-07-17T12:05:51;1.30;;;1.30;;
51692;SDS011;37777;53.066;21.638;2022-07-17T12:20:02;1.92;;;1.58;;
51692;SDS011;37777;53.066;21.638;2022-07-17T12:27:06;1.10;;;1.10;;
51692;SDS011;37777;53.066;21.638;2022-07-17T12:34:10;1.38;;;1.27;;
51692;SDS011;37777;53.066;21.638;2022-07-17T12:41:12;1.90;;;1.33;;
51692;SDS011;37777;53.066;21.638;2022-07-17T12:48:14;2.28;;;1.30;;
51692;SDS011;37777;53.066;21.638;2022-07-17T12:55:17;4.13;;;1.58;;
51692;SDS011;37777;53.066;21.638;2022-07-17T13:02:19;2.22;;;1.95;;
51692;SDS011;37777;53.066;21.638;2022-07-17T13:09:21;3.05;;;2.13;;
51692;SDS011;37777;53.066;21.638;2022-07-17T13:16:23;3.33;;;2.17;;
51692;SDS011;37777;53.066;21.638;2022-07-17T13:23:26;3.92;;;2.22;;
51692;SDS011;37777;53.066;21.638;2022-07-17T13:30:28;1.80;;;1.70;;
51692;SDS011;37777;53.066;21.638;2022-07-17T13:37:30;2.42;;;1.40;;
51692;SDS011;37777;53.066;21.638;2022-07-17T13:44:32;1.33;;;1.23;;
51692;SDS011;37777;53.066;21.638;2022-07-17T13:51:37;11.35;;;1.50;;
51692;SDS011;37777;53.066;21.638;2022-07-17T13:58:41;3.47;;;1.35;;
51692;SDS011;37777;53.066;21.638;2022-07-17T14:05:43;3.33;;;1.30;;
51692;SDS011;37777;53.066;21.638;2022-07-17T14:12:45;1.40;;;1.30;;
51692;SDS011;37777;53.066;21.638;2022-07-17T14:19:47;2.85;;;1.20;;
51692;SDS011;37777;53.066;21.638;2022-07-17T14:26:49;2.30;;;1.60;;
51692;SDS011;37777;53.066;21.638;2022-07-17T14:33:52;3.28;;;1.30;;
51692;SDS011;37777;53.066;21.638;2022-07-17T14:40:54;1.38;;;1.20;;
51692;SDS011;37777;53.066;21.638;2022-07-17T14:47:56;1.50;;;1.20;;
51692;SDS011;37777;53.066;21.638;2022-07-17T14:54:58;0.98;;;0.98;;
51692;SDS011;37777;53.066;21.638;2022-07-17T15:02:01;3.33;;;1.70;;
51692;SDS011;37777;53.066;21.638;2022-07-17T15:09:03;1.30;;;1.20;;
51692;SDS011;37777;53.066;21.638;2022-07-17T15:16:06;1.50;;;1.20;;
51692;SDS011;37777;53.066;21.638;2022-07-17T15:23:08;1.40;;;1.30;;
51692;SDS011;37777;53.066;21.638;2022-07-17T15:30:11;1.73;;;1.20;;
51692;SDS011;37777;53.066;21.638;2022-07-17T15:37:13;2.03;;;1.40;;
51692;SDS011;37777;53.066;21.638;2022-07-17T15:44:15;1.70;;;1.60;;
51692;SDS011;37777;53.066;21.638;2022-07-17T15:51:17;2.67;;;1.80;;
51692;SDS011;37777;53.066;21.638;2022-07-17T15:58:20;1.52;;;1.42;;
51692;SDS011;37777;53.066;21.638;2022-07-17T16:05:23;1.40;;;1.30;;
51692;SDS011;37777;53.066;21.638;2022-07-17T16:12:39;1.70;;;1.60;;
51692;SDS011;37777;53.066;21.638;2022-07-17T16:19:41;2.72;;;1.50;;
51692;SDS011;37777;53.066;21.638;2022-07-17T16:26:45;2.10;;;1.50;;
51692;SDS011;37777;53.066;21.638;2022-07-17T16:33:54;1.40;;;1.30;;
51692;SDS011;37777;53.066;21.638;2022-07-17T16:40:58;1.77;;;1.48;;
51692;SDS011;37777;53.066;21.638;2022-07-17T16:48:00;2.25;;;1.27;;
51692;SDS011;37777;53.066;21.638;2022-07-17T16:55:03;1.58;;;1.20;;
51692;SDS011;37777;53.066;21.638;2022-07-17T17:02:06;2.22;;;1.30;;
51692;SDS011;37777;53.066;21.638;2022-07-17T17:09:09;1.60;;;1.27;;
51692;SDS011;37777;53.066;21.638;2022-07-17T17:16:12;2.95;;;1.35;;
51692;SDS011;37777;53.066;21.638;2022-07-17T17:23:16;1.65;;;1.55;;
51692;SDS011;37777;53.066;21.638;2022-07-17T17:30:19;2.47;;;1.10;;
51692;SDS011;37777;53.066;21.638;2022-07-17T17:37:22;1.98;;;1.75;;
51692;SDS011;37777;53.066;21.638;2022-07-17T17:44:25;1.98;;;1.63;;
51692;SDS011;37777;53.066;21.638;2022-07-17T17:51:28;2.28;;;1.50;;
51692;SDS011;37777;53.066;21.638;2022-07-17T17:58:30;1.70;;;1.60;;
51692;SDS011;37777;53.066;21.638;2022-07-17T18:05:33;5.20;;;1.50;;
51692;SDS011;37777;53.066;21.638;2022-07-17T18:12:41;3.17;;;1.58;;
51692;SDS011;37777;53.066;21.638;2022-07-17T18:19:44;5.28;;;2.00;;
51692;SDS011;37777;53.066;21.638;2022-07-17T18:26:47;3.10;;;1.63;;
51692;SDS011;37777;53.066;21.638;2022-07-17T18:33:49;1.92;;;1.65;;
51692;SDS011;37777;53.066;21.638;2022-07-17T18:40:52;1.73;;;1.63;;
51692;SDS011;37777;53.066;21.638;2022-07-17T18:47:54;2.85;;;1.60;;
51692;SDS011;37777;53.066;21.638;2022-07-17T18:55:00;3.95;;;1.80;;
51692;SDS011;37777;53.066;21.638;2022-07-17T19:02:03;3.67;;;1.80;;
51692;SDS011;37777;53.066;21.638;2022-07-17T19:09:05;5.07;;;2.40;;
51692;SDS011;37777;53.066;21.638;2022-07-17T19:16:07;5.53;;;2.70;;
51692;SDS011;37777;53.066;21.638;2022-07-17T19:23:13;3.15;;;2.40;;
51692;SDS011;37777;53.066;21.638;2022-07-17T19:30:27;7.47;;;3.70;;
51692;SDS011;37777;53.066;21.638;2022-07-17T19:37:31;5.18;;;2.97;;
51692;SDS011;37777;53.066;21.638;2022-07-17T19:44:33;5.68;;;3.00;;
51692;SDS011;37777;53.066;21.638;2022-07-17T19:51:37;7.10;;;3.03;;
51692;SDS011;37777;53.066;21.638;2022-07-17T19:58:44;4.90;;;3.20;;
51692;SDS011;37777;53.066;21.638;2022-07-17T20:05:47;3.72;;;2.67;;
51692;SDS011;37777;53.066;21.638;2022-07-17T20:12:53;6.18;;;3.03;;
51692;SDS011;37777;53.066;21.638;2022-07-17T20:19:55;6.30;;;3.22;;
51692;SDS011;37777;53.066;21.638;2022-07-17T20:26:58;5.35;;;3.28;;
51692;SDS011;37777;53.066;21.638;2022-07-17T20:34:00;4.32;;;3.10;;
51692;SDS011;37777;53.066;21.638;2022-07-17T20:41:03;5.32;;;3.45;;
51692;SDS011;37777;53.066;21.638;2022-07-17T20:48:06;5.28;;;2.95;;
51692;SDS011;37777;53.066;21.638;2022-07-17T20:55:08;5.00;;;3.22;;
51692;SDS011;37777;53.066;21.638;2022-07-17T21:02:11;6.22;;;3.00;;
51692;SDS011;37777;53.066;21.638;2022-07-17T21:09:13;6.13;;;3.47;;
51692;SDS011;37777;53.066;21.638;2022-07-17T21:16:18;10.52;;;4.38;;
51692;SDS011;37777;53.066;21.638;2022-07-17T21:23:24;9.15;;;5.03;;
51692;SDS011;37777;53.066;21.638;2022-07-17T21:30:27;12.02;;;5.43;;
51692;SDS011;37777;53.066;21.638;2022-07-17T21:37:29;6.00;;;4.15;;
51692;SDS011;37777;53.066;21.638;2022-07-17T21:44:32;4.97;;;3.00;;
51692;SDS011;37777;53.066;21.638;2022-07-17T21:51:34;4.30;;;3.25;;
51692;SDS011;37777;53.066;21.638;2022-07-17T21:58:36;3.97;;;3.00;;
51692;SDS011;37777;53.066;21.638;2022-07-17T22:05:40;4.63;;;2.70;;
51692;SDS011;37777;53.066;21.638;2022-07-17T22:12:42;5.50;;;2.90;;
51692;SDS011;37777;53.066;21.638;2022-07-17T22:19:44;6.57;;;3.50;;
51692;SDS011;37777;53.066;21.638;2022-07-17T22:26:46;5.45;;;3.20;;
51692;SDS011;37777;53.066;21.638;2022-07-17T22:33:49;3.88;;;2.65;;
51692;SDS011;37777;53.066;21.638;2022-07-17T22:40:51;7.35;;;3.42;;
51692;SDS011;37777;53.066;21.638;2022-07-17T22:47:53;3.63;;;2.90;;
51692;SDS011;37777;53.066;21.638;2022-07-17T22:54:56;7.15;;;3.35;;
51692;SDS011;37777;53.066;21.638;2022-07-17T23:01:58;4.00;;;2.72;;
51692;SDS011;37777;53.066;21.638;2022-07-17T23:09:01;3.92;;;2.80;;
51692;SDS011;37777;53.066;21.638;2022-07-17T23:16:03;4.15;;;3.10;;
51692;SDS011;37777;53.066;21.638;2022-07-17T23:23:06;3.92;;;3.20;;
51692;SDS011;37777;53.066;21.638;2022-07-17T23:30:09;6.60;;;3.28;;
51692;SDS011;37777;53.066;21.638;2022-07-17T23:37:12;8.00;;;3.10;;
51692;SDS011;37777;53.066;21.638;2022-07-17T23:44:14;6.03;;;3.22;;
51692;SDS011;37777;53.066;21.638;2022-07-17T23:51:16;6.57;;;3.53;;
51692;SDS011;37777;53.066;21.638;2022-07-17T23:58:20;4.53;;;3.33;;
